Time;durP1;ratioP1;P1;durP2;ratioP2;P2;SDS_P1;SDS_P2;PMS_P1;PMS_P2;Temp;Humidity;BMP_temperature;BMP_pressure;BME280_temperature;BME280_humidity;BME280_pressure;Samples;Min_cycle;Max_cycle;Signal;HPM_P1;HPM_P2
2022/07/11 00:00:01;;;;;;;10.75;2.03;;;;;;;20.89;40.74;101622.69;5046767;27;98918;-72
2022/07/11 00:02:28;;;;;;;5.53;1.17;;;;;;;20.58;41.54;101617.56;5047005;27;97069;-72
2022/07/11 00:04:55;;;;;;;6.53;1.30;;;;;;;20.11;42.57;101617.81;5049312;27;96802;-71
2022/07/11 00:07:22;;;;;;;7.28;1.70;;;;;;;20.25;42.31;101615.13;5046849;27;99073;-72
2022/07/11 00:09:48;;;;;;;10.02;1.30;;;;;;;20.13;42.40;101613.22;5047036;27;99010;-72
2022/07/11 00:12:15;;;;;;;9.27;1.00;;;;;;;20.37;42.11;101618.91;5048546;27;97120;-72
2022/07/11 00:14:41;;;;;;;10.00;1.45;;;;;;;20.24;42.28;101618.78;5046053;27;97211;-71
2022/07/11 00:17:09;;;;;;;4.60;1.17;;;;;;;20.35;41.93;101619.00;5047114;27;98855;-73
2022/07/11 00:19:36;;;;;;;6.68;0.95;;;;;;;20.09;42.76;101619.72;5043869;27;98220;-72
2022/07/11 00:22:06;;;;;;;8.48;1.40;;;;;;;19.85;43.28;101614.91;5048857;27;97029;-72
2022/07/11 00:24:32;;;;;;;7.10;1.27;;;;;;;19.99;42.96;101608.69;5046349;27;97389;-70
2022/07/11 00:26:59;;;;;;;7.07;1.35;;;;;;;19.94;43.36;101613.47;5044888;27;98724;-72
2022/07/11 00:29:26;;;;;;;8.13;1.05;;;;;;;19.95;43.08;101617.91;5048082;27;99335;-71
2022/07/11 00:31:52;;;;;;;10.45;1.05;;;;;;;19.47;44.40;101611.81;5044853;27;98071;-71
2022/07/11 00:34:19;;;;;;;6.38;1.02;;;;;;;19.47;44.24;101610.97;5047944;27;96931;-71
2022/07/11 00:36:45;;;;;;;5.40;1.05;;;;;;;19.49;44.25;101604.53;5046096;27;101558;-71
2022/07/11 00:39:13;;;;;;;5.80;1.00;;;;;;;19.63;44.05;101616.25;5047977;27;97764;-71
2022/07/11 00:41:39;;;;;;;7.43;1.40;;;;;;;19.40;44.47;101606.88;5049553;27;97011;-70
2022/07/11 00:44:06;;;;;;;8.32;1.70;;;;;;;19.23;45.03;101607.84;5048460;27;97268;-71
2022/07/11 00:46:33;;;;;;;6.57;1.38;;;;;;;19.30;45.05;101603.84;5047384;27;98929;-72
2022/07/11 00:49:00;;;;;;;9.80;1.50;;;;;;;19.23;45.24;101612.38;5047921;27;99460;-70
2022/07/11 00:51:28;;;;;;;10.45;1.35;;;;;;;18.90;45.97;101610.66;5042667;27;96794;-71
2022/07/11 00:53:56;;;;;;;9.05;1.25;;;;;;;18.69;46.50;101601.16;5045959;27;96984;-71
2022/07/11 00:56:26;;;;;;;14.80;1.73;;;;;;;18.93;45.93;101604.25;5048362;27;98927;-71
2022/07/11 00:58:54;;;;;;;6.47;1.00;;;;;;;18.86;46.26;101602.88;5049758;27;99321;-72
2022/07/11 01:01:20;;;;;;;8.30;1.33;;;;;;;19.03;45.80;101600.94;5052897;27;97142;-71
2022/07/11 01:03:48;;;;;;;7.53;1.00;;;;;;;19.11;45.56;101603.19;5046493;27;98342;-71
2022/07/11 01:06:14;;;;;;;7.03;1.20;;;;;;;18.51;47.11;101607.50;5045152;27;99682;-72
2022/07/11 01:08:41;;;;;;;9.68;1.67;;;;;;;18.65;46.75;101605.78;5051331;27;101808;-72
2022/07/11 01:11:12;;;;;;;18.58;1.38;;;;;;;18.60;47.11;101604.31;5045735;27;98214;-72
2022/07/11 01:13:40;;;;;;;10.95;1.50;;;;;;;18.80;46.38;101604.09;5051388;27;98621;-71
2022/07/11 01:16:14;;;;;;;9.05;1.40;;;;;;;18.97;45.97;101609.34;5051080;27;98884;-71
2022/07/11 01:18:42;;;;;;;7.25;1.20;;;;;;;19.15;45.55;101604.78;5047250;27;97451;-71
2022/07/11 01:21:17;;;;;;;10.75;1.55;;;;;;;19.16;45.53;101611.00;5050325;27;96896;-71
2022/07/11 01:23:46;;;;;;;6.13;0.90;;;;;;;19.04;45.57;101608.03;5052166;27;97128;-72
2022/07/11 01:26:12;;;;;;;8.05;1.13;;;;;;;19.01;45.69;101612.72;5048196;27;99580;-72
2022/07/11 01:28:39;;;;;;;9.85;1.20;;;;;;;18.88;45.93;101615.22;5048301;27;101827;-72
2022/07/11 01:31:05;;;;;;;6.05;1.05;;;;;;;18.43;47.15;101604.38;5050906;27;96698;-73
2022/07/11 01:33:32;;;;;;;7.38;1.20;;;;;;;18.48;47.06;101613.00;5052477;27;97129;-71
2022/07/11 01:36:00;;;;;;;7.82;1.30;;;;;;;18.26;47.45;101614.16;5049865;27;98644;-72
2022/07/11 01:38:26;;;;;;;7.32;1.23;;;;;;;18.14;47.93;101614.81;5047529;27;98130;-72
2022/07/11 01:40:54;;;;;;;6.38;1.05;;;;;;;18.30;47.45;101609.53;5050236;27;96896;-72
2022/07/11 01:43:20;;;;;;;7.28;1.10;;;;;;;18.48;47.20;101611.19;5048310;27;97837;-72
2022/07/11 01:45:47;;;;;;;9.35;1.38;;;;;;;18.66;46.64;101612.03;5047312;27;98877;-71
2022/07/11 01:48:13;;;;;;;12.57;1.25;;;;;;;18.65;46.62;101615.63;5049550;27;99102;-72
2022/07/11 01:50:40;;;;;;;10.20;1.10;;;;;;;18.79;46.23;101613.06;5048433;27;97776;-71
2022/07/11 01:53:06;;;;;;;6.38;1.50;;;;;;;18.62;46.78;101608.66;5050238;27;97369;-72
2022/07/11 01:55:32;;;;;;;7.03;1.17;;;;;;;18.52;46.84;101610.06;5050425;27;101772;-71
2022/07/11 01:58:00;;;;;;;10.07;1.45;;;;;;;18.53;46.96;101608.25;5050400;27;98155;-70
2022/07/11 02:00:27;;;;;;;12.02;1.50;;;;;;;18.40;47.60;101607.19;5051842;27;96737;-71
2022/07/11 02:02:53;;;;;;;4.95;1.20;;;;;;;18.37;47.31;101605.56;5045687;27;96819;-71
2022/07/11 02:05:19;;;;;;;9.50;1.45;;;;;;;18.33;47.68;101612.03;5047771;27;98906;-71
2022/07/11 02:10:30;;;;;;;14.07;1.67;;;;;;;18.08;48.11;101611.59;5047781;27;97251;-71
2022/07/11 02:12:58;;;;;;;7.45;1.20;;;;;;;17.97;48.50;101601.50;5047619;27;96829;-71
2022/07/11 02:15:25;;;;;;;5.38;1.42;;;;;;;17.97;48.58;101614.00;5049851;27;97842;-72
2022/07/11 02:17:52;;;;;;;11.02;1.80;;;;;;;17.81;49.03;101611.25;5048732;27;99055;-71
2022/07/11 02:20:18;;;;;;;6.78;1.13;;;;;;;18.06;48.42;101610.81;5049599;27;96883;-70
2022/07/11 02:22:45;;;;;;;8.52;1.70;;;;;;;18.05;48.39;101609.09;5050674;27;97088;-71
2022/07/11 02:25:11;;;;;;;7.55;1.52;;;;;;;18.08;48.20;101614.28;5048737;27;98921;-73
2022/07/11 02:27:38;;;;;;;9.60;1.30;;;;;;;18.14;48.13;101617.50;5045430;27;99271;-71
2022/07/11 02:30:05;;;;;;;8.73;1.23;;;;;;;17.89;48.67;101611.72;5051333;27;97241;-72
2022/07/11 02:32:33;;;;;;;14.55;1.48;;;;;;;18.00;48.53;101621.84;5050810;27;96906;-72
2022/07/11 02:34:59;;;;;;;7.03;1.60;;;;;;;17.78;49.12;101617.63;5047632;27;101517;-71
2022/07/11 02:37:26;;;;;;;7.55;1.73;;;;;;;17.75;49.17;101627.59;5046474;27;99418;-71
2022/07/11 02:39:52;;;;;;;8.85;1.27;;;;;;;17.56;49.67;101624.97;5049716;27;97468;-70
2022/07/11 02:42:19;;;;;;;11.93;1.63;;;;;;;17.57;49.96;101621.34;5049002;27;97249;-71
2022/07/11 02:44:45;;;;;;;8.45;1.35;;;;;;;17.56;49.88;101624.97;5049816;27;99093;-72
2022/07/11 02:47:13;;;;;;;7.88;1.60;;;;;;;17.50;50.33;101631.50;5049437;27;99410;-72
2022/07/11 02:49:41;;;;;;;5.35;1.20;;;;;;;17.73;49.42;101630.34;5048052;27;96721;-71
2022/07/11 02:52:08;;;;;;;5.57;1.17;;;;;;;17.79;49.32;101624.69;5050876;27;96917;-71
2022/07/11 02:54:34;;;;;;;9.57;1.10;;;;;;;17.65;49.66;101631.69;5046163;27;99594;-71
2022/07/11 02:57:01;;;;;;;7.22;1.17;;;;;;;17.77;49.21;101629.25;5047524;27;97992;-70
2022/07/11 02:59:28;;;;;;;7.88;1.25;;;;;;;17.39;50.13;101632.97;5045122;27;97236;-71
2022/07/11 03:01:55;;;;;;;8.25;1.40;;;;;;;16.99;51.55;101632.25;5050392;27;96747;-71
2022/07/11 03:04:21;;;;;;;5.65;1.00;;;;;;;17.13;51.11;101629.75;5041940;27;99336;-71
2022/07/11 03:06:49;;;;;;;11.00;1.45;;;;;;;17.27;50.73;101629.09;5042632;27;99527;-71
2022/07/11 03:09:15;;;;;;;4.65;1.27;;;;;;;17.29;50.70;101637.91;5048967;27;96819;-71
2022/07/11 03:11:42;;;;;;;4.85;1.23;;;;;;;17.37;50.43;101630.38;5046818;27;97572;-71
2022/07/11 03:14:08;;;;;;;6.82;1.38;;;;;;;17.26;50.71;101632.72;5048958;27;99072;-71
2022/07/11 03:16:35;;;;;;;8.32;1.20;;;;;;;17.43;50.40;101637.22;5048119;27;99036;-71
2022/07/11 03:19:02;;;;;;;24.23;1.70;;;;;;;17.25;50.85;101635.47;5046683;27;96861;-71
2022/07/11 03:21:28;;;;;;;5.25;1.30;;;;;;;17.40;50.46;101640.03;5051182;27;98572;-71
2022/07/11 03:23:56;;;;;;;13.32;1.88;;;;;;;17.12;51.33;101636.06;5047048;27;101331;-71
2022/07/11 03:26:22;;;;;;;10.25;1.95;;;;;;;17.36;50.83;101641.13;5047340;27;98715;-71
2022/07/11 03:28:49;;;;;;;10.52;1.42;;;;;;;17.59;50.31;101651.53;5049224;27;98417;-71
2022/07/11 03:31:15;;;;;;;14.02;1.73;;;;;;;17.35;50.58;101644.75;5049508;27;96812;-73
2022/07/11 03:33:41;;;;;;;5.28;1.52;;;;;;;17.63;50.12;101644.25;5048703;27;98979;-72
2022/07/11 03:36:08;;;;;;;10.55;1.30;;;;;;;17.51;50.20;101640.38;5048630;27;99257;-72
2022/07/11 03:38:34;;;;;;;9.68;1.25;;;;;;;17.35;50.56;101644.75;5045950;27;96876;-71
2022/07/11 03:41:02;;;;;;;8.07;1.45;;;;;;;17.36;50.36;101635.78;5047769;27;97644;-71
2022/07/11 03:43:28;;;;;;;11.57;1.48;;;;;;;17.21;51.16;101632.06;5041627;27;99136;-72
2022/07/11 03:45:55;;;;;;;5.63;1.27;;;;;;;17.38;50.74;101637.44;5048388;27;99494;-71
2022/07/11 03:48:22;;;;;;;7.47;1.40;;;;;;;17.25;50.62;101635.47;5042455;27;97211;-71
2022/07/11 03:50:49;;;;;;;7.15;1.17;;;;;;;16.84;52.02;101638.31;5045070;27;97417;-71
2022/07/11 03:53:15;;;;;;;6.47;1.30;;;;;;;16.86;52.06;101638.25;5049114;27;98919;-72
2022/07/11 03:55:42;;;;;;;10.55;1.75;;;;;;;17.07;51.59;101639.88;5046940;27;99041;-72
2022/07/11 03:58:09;;;;;;;4.45;1.35;;;;;;;16.93;51.64;101637.88;5047695;27;97658;-72
2022/07/11 04:00:36;;;;;;;11.95;2.05;;;;;;;17.36;50.70;101639.31;5048663;27;97153;-71
2022/07/11 04:03:02;;;;;;;6.90;1.40;;;;;;;17.38;50.75;101645.47;5048264;27;99305;-72
2022/07/11 04:05:29;;;;;;;11.05;1.80;;;;;;;17.59;50.24;101642.66;5048579;27;98335;-71
2022/07/11 04:07:55;;;;;;;10.65;1.83;;;;;;;17.65;49.58;101643.25;5044347;27;98516;-72
2022/07/11 04:10:21;;;;;;;8.82;1.30;;;;;;;17.39;50.75;101643.66;5049247;27;96957;-71
2022/07/11 04:12:48;;;;;;;6.25;1.40;;;;;;;17.73;49.84;101645.50;5047755;27;99015;-71
2022/07/11 04:15:15;;;;;;;11.52;1.85;;;;;;;17.83;49.47;101644.97;5047765;27;98686;-72
2022/07/11 04:17:42;;;;;;;10.05;1.40;;;;;;;17.94;49.12;101641.75;5044021;27;97629;-71
2022/07/11 04:20:09;;;;;;;9.48;1.45;;;;;;;17.70;49.90;101643.88;5043850;27;98745;-71
2022/07/11 04:22:36;;;;;;;9.45;1.95;;;;;;;17.84;49.47;101637.84;5044597;27;101813;-71
2022/07/11 04:25:02;;;;;;;11.18;1.25;;;;;;;18.17;48.73;101637.88;5046454;27;99215;-70
2022/07/11 04:27:29;;;;;;;6.70;1.40;;;;;;;18.02;48.74;101646.69;5048530;27;96794;-71
2022/07/11 04:29:55;;;;;;;8.27;1.42;;;;;;;17.98;48.98;101646.00;5046074;27;97192;-70
2022/07/11 04:32:23;;;;;;;6.22;1.23;;;;;;;18.07;48.70;101650.84;5053559;27;98886;-71
2022/07/11 04:34:49;;;;;;;3.78;1.20;;;;;;;17.91;49.21;101641.91;5051858;27;99529;-71
2022/07/11 04:37:16;;;;;;;8.30;1.58;;;;;;;17.48;50.36;101645.84;5051070;27;97621;-71
2022/07/11 04:39:45;;;;;;;6.30;1.25;;;;;;;17.91;49.44;101648.13;5052838;27;97278;-72
2022/07/11 04:42:11;;;;;;;7.00;1.30;;;;;;;17.62;50.15;101648.75;5047974;27;100192;-71
2022/07/11 04:44:38;;;;;;;6.65;1.50;;;;;;;17.96;49.25;101649.69;5050608;27;100706;-71
2022/07/11 04:47:05;;;;;;;9.90;1.90;;;;;;;18.37;48.41;101653.72;5048834;27;97398;-70
2022/07/11 04:49:32;;;;;;;6.63;1.60;;;;;;;18.44;47.74;101655.13;5051370;27;97405;-71
2022/07/11 04:52:00;;;;;;;6.88;1.33;;;;;;;18.60;47.52;101656.06;5050622;27;98904;-70
2022/07/11 04:54:26;;;;;;;6.88;1.20;;;;;;;18.87;46.98;101648.31;5051671;27;98840;-70
2022/07/11 04:56:53;;;;;;;7.53;1.10;;;;;;;19.01;46.58;101651.09;5051815;27;97107;-71
2022/07/11 04:59:19;;;;;;;7.95;1.88;;;;;;;18.99;46.38;101655.66;5050958;27;96919;-71
2022/07/11 05:01:46;;;;;;;4.10;1.40;;;;;;;19.17;46.19;101656.44;5052093;27;99044;-71
2022/07/11 05:04:12;;;;;;;7.55;1.27;;;;;;;20.03;44.57;101653.16;5050075;27;99410;-71
2022/07/11 05:06:40;;;;;;;7.63;1.23;;;;;;;21.24;41.24;101657.19;5051223;27;97972;-71
2022/07/11 05:09:07;;;;;;;10.48;1.38;;;;;;;22.39;39.14;101659.16;5050950;27;97218;-72
2022/07/11 05:11:36;;;;;;;8.45;1.88;;;;;;;23.55;36.67;101660.56;5052222;27;98765;-72
2022/07/11 05:14:03;;;;;;;6.45;1.40;;;;;;;23.25;37.01;101663.66;5051210;27;98010;-72
2022/07/11 05:16:29;;;;;;;8.50;1.55;;;;;;;21.58;40.14;101663.88;5049949;27;97295;-71
2022/07/11 05:18:56;;;;;;;8.52;1.60;;;;;;;21.03;41.55;101662.97;5051497;27;96879;-71
2022/07/11 05:21:23;;;;;;;6.80;1.13;;;;;;;21.03;42.15;101672.84;5051673;27;100101;-70
2022/07/11 05:23:51;;;;;;;11.55;1.83;;;;;;;21.31;41.37;101666.56;5049673;27;101773;-70
2022/07/11 05:26:18;;;;;;;13.88;1.55;;;;;;;20.84;42.12;101670.47;5045503;27;96815;-71
2022/07/11 05:28:44;;;;;;;7.28;1.17;;;;;;;20.67;42.81;101670.69;5051883;27;96940;-71
2022/07/11 05:31:11;;;;;;;5.03;0.93;;;;;;;20.25;44.00;101674.19;5051423;27;99013;-69
2022/07/11 05:33:38;;;;;;;9.70;1.80;;;;;;;20.27;44.24;101670.47;5050591;27;99174;-70
2022/07/11 05:36:05;;;;;;;8.73;1.90;;;;;;;20.37;44.04;101676.13;5048054;27;97248;-71
2022/07/11 05:38:31;;;;;;;7.72;1.63;;;;;;;20.14;44.87;101677.53;5049987;27;97291;-72
2022/07/11 05:40:59;;;;;;;6.07;1.10;;;;;;;20.06;45.13;101685.16;5043635;27;98901;-71
2022/07/11 05:43:26;;;;;;;9.90;1.80;;;;;;;20.13;45.18;101675.78;5041984;27;98769;-72
2022/07/11 05:45:52;;;;;;;12.93;1.77;;;;;;;20.07;45.17;101676.16;5044125;27;98452;-72
2022/07/11 05:48:19;;;;;;;12.25;2.10;;;;;;;20.11;45.36;101675.00;5043415;27;97021;-71
2022/07/11 05:50:45;;;;;;;5.45;1.23;;;;;;;20.21;45.13;101678.88;5046658;27;101945;-71
2022/07/11 05:53:12;;;;;;;14.20;2.20;;;;;;;20.45;44.85;101681.03;5047142;27;99585;-72
2022/07/11 05:55:39;;;;;;;12.07;2.15;;;;;;;20.89;43.72;101679.09;5044859;27;96999;-71
2022/07/11 05:58:07;;;;;;;10.35;1.48;;;;;;;20.77;43.99;101679.00;5046215;27;97004;-71
2022/07/11 06:00:33;;;;;;;10.40;1.55;;;;;;;20.78;44.24;101673.56;5047144;27;98727;-72
2022/07/11 06:03:08;;;;;;;8.00;2.15;;;;;;;20.95;43.94;101692.13;5048564;27;98078;-72
2022/07/11 06:05:35;;;;;;;9.27;2.30;;;;;;;21.06;43.63;101686.97;5048626;27;96816;-71
2022/07/11 06:10:46;;;;;;;7.15;1.75;;;;;;;20.14;45.85;101680.22;5042777;27;97619;-71
2022/07/11 06:13:13;;;;;;;11.73;1.88;;;;;;;20.43;45.83;101685.63;5045337;27;99256;-71
2022/07/11 06:15:40;;;;;;;10.82;2.22;;;;;;;21.20;44.03;101685.25;5044762;27;97862;-71
2022/07/11 06:18:06;;;;;;;10.10;3.53;;;;;;;20.99;44.32;101688.31;5043338;27;98804;-72
2022/07/11 06:20:33;;;;;;;7.28;1.40;;;;;;;21.21;43.67;101687.81;5041375;27;98794;-74
2022/07/11 06:22:59;;;;;;;5.35;1.48;;;;;;;21.55;43.34;101685.59;5048888;27;98680;-72
2022/07/11 06:25:26;;;;;;;6.40;1.77;;;;;;;21.79;42.55;101690.19;5041669;27;96828;-71
2022/07/11 06:27:52;;;;;;;18.70;2.33;;;;;;;21.79;42.49;101695.56;5043637;27;97066;-71
2022/07/11 06:30:20;;;;;;;13.25;1.92;;;;;;;22.05;42.16;101690.28;5047731;27;99462;-72
2022/07/11 06:32:46;;;;;;;9.73;1.67;;;;;;;21.98;42.39;101697.06;5049756;27;98913;-72
2022/07/11 06:35:13;;;;;;;8.05;1.00;;;;;;;21.45;43.63;101688.03;5048344;27;97225;-72
2022/07/11 06:37:39;;;;;;;6.40;1.50;;;;;;;21.65;43.53;101694.78;5044982;27;98830;-72
2022/07/11 06:40:09;;;;;;;11.38;2.03;;;;;;;21.93;43.02;101694.63;5047732;27;98617;-71
2022/07/11 06:42:36;;;;;;;6.45;1.45;;;;;;;21.97;42.69;101692.63;5041038;27;101109;-72
2022/07/11 06:45:03;;;;;;;10.38;3.38;;;;;;;21.90;42.99;101692.16;5049487;27;96946;-72
2022/07/11 06:47:32;;;;;;;6.97;1.45;;;;;;;21.52;43.54;101686.66;5046951;27;98654;-71
2022/07/11 06:49:59;;;;;;;11.48;1.67;;;;;;;21.28;44.25;101688.25;5048196;27;98976;-71
2022/07/11 06:52:25;;;;;;;9.35;1.35;;;;;;;21.76;43.70;101693.09;5044173;27;98739;-71
2022/07/11 06:54:52;;;;;;;7.45;1.55;;;;;;;22.06;43.13;101695.53;5045766;27;97327;-71
2022/07/11 06:57:18;;;;;;;6.10;1.90;;;;;;;22.24;42.43;101696.13;5048024;27;97263;-72
2022/07/11 06:59:45;;;;;;;9.30;1.42;;;;;;;21.24;44.35;101690.31;5046957;27;97742;-71
2022/07/11 07:02:11;;;;;;;9.35;1.90;;;;;;;21.47;44.59;101689.66;5046728;27;98984;-71
2022/07/11 07:04:39;;;;;;;11.07;1.98;;;;;;;22.11;43.20;101695.25;5044301;27;97233;-72
2022/07/11 07:07:05;;;;;;;6.35;1.30;;;;;;;22.69;41.96;101685.78;5046066;27;96998;-71
2022/07/11 07:09:32;;;;;;;13.68;2.05;;;;;;;22.84;41.19;101687.41;5044205;27;100369;-71
2022/07/11 07:11:58;;;;;;;15.63;2.10;;;;;;;22.45;42.26;101696.47;5044129;27;97576;-71
2022/07/11 07:14:25;;;;;;;9.35;1.92;;;;;;;22.27;42.42;101693.22;5048967;27;96912;-71
2022/07/11 07:16:51;;;;;;;11.48;2.03;;;;;;;21.95;43.34;101694.53;5047511;27;97408;-72
2022/07/11 07:19:18;;;;;;;9.45;1.75;;;;;;;22.10;43.00;101697.06;5047357;27;99263;-72
2022/07/11 07:21:45;;;;;;;7.75;1.38;;;;;;;22.38;42.67;101697.88;5045946;27;99766;-72
2022/07/11 07:24:12;;;;;;;6.75;1.27;;;;;;;22.29;42.47;101704.75;5044583;27;97523;-72
2022/07/11 07:26:38;;;;;;;12.90;1.70;;;;;;;22.71;41.69;101700.84;5045273;27;97668;-71
2022/07/11 07:29:04;;;;;;;14.35;1.67;;;;;;;22.78;41.14;101701.31;5040914;27;98835;-72
2022/07/11 07:31:31;;;;;;;17.33;2.13;;;;;;;22.80;41.28;101699.38;5044672;27;100795;-71
2022/07/11 07:33:57;;;;;;;10.40;1.30;;;;;;;22.93;41.16;101705.59;5047111;27;96863;-71
2022/07/11 07:36:24;;;;;;;11.25;1.70;;;;;;;22.71;41.42;101710.78;5047069;27;97276;-71
2022/07/11 07:38:52;;;;;;;9.20;1.65;;;;;;;22.45;41.68;101713.47;5041832;27;99235;-73
2022/07/11 07:41:18;;;;;;;7.15;1.77;;;;;;;22.37;42.27;101714.97;5047618;27;98935;-71
2022/07/11 07:43:45;;;;;;;10.18;1.88;;;;;;;22.39;42.37;101711.19;5047032;27;97152;-71
2022/07/11 07:46:12;;;;;;;11.13;2.08;;;;;;;22.76;41.61;101722.13;5047022;27;97572;-71
2022/07/11 07:48:38;;;;;;;8.70;1.70;;;;;;;22.76;41.19;101720.28;5047529;27;99560;-71
2022/07/11 07:51:05;;;;;;;10.45;2.00;;;;;;;23.06;40.84;101706.44;5047904;27;99770;-72
2022/07/11 07:53:31;;;;;;;10.27;1.55;;;;;;;23.04;40.79;101719.16;5046642;27;97285;-71
2022/07/11 07:55:59;;;;;;;5.88;1.45;;;;;;;23.29;40.11;101715.56;5046851;27;97528;-72
2022/07/11 07:58:26;;;;;;;7.72;1.70;;;;;;;23.60;39.83;101725.81;5047048;27;102305;-72
2022/07/11 08:03:36;;;;;;;10.23;1.27;;;;;;;23.39;40.26;101714.75;5034269;27;98023;-72
2022/07/11 08:06:03;;;;;;;12.65;1.90;;;;;;;22.92;41.07;101726.28;5048341;27;97254;-72
2022/07/11 08:08:29;;;;;;;11.15;1.48;;;;;;;22.57;41.74;101731.47;5045036;27;98907;-72
2022/07/11 08:10:56;;;;;;;10.50;2.30;;;;;;;23.42;40.27;101714.53;5051142;27;101687;-72
2022/07/11 08:13:25;;;;;;;8.05;1.45;;;;;;;23.22;40.90;101717.84;5049421;27;97379;-71
2022/07/11 08:15:51;;;;;;;6.13;1.67;;;;;;;22.14;42.96;101725.50;5051113;27;97327;-72
2022/07/11 08:18:18;;;;;;;6.97;2.67;;;;;;;22.84;41.21;101725.13;5049380;27;99287;-71
2022/07/11 08:20:44;;;;;;;10.95;1.60;;;;;;;22.48;42.12;101718.66;5046679;27;99037;-72
2022/07/11 08:23:12;;;;;;;6.53;1.27;;;;;;;23.16;40.82;101712.91;5046406;27;98302;-72
2022/07/11 08:25:39;;;;;;;6.43;1.30;;;;;;;23.76;39.52;101714.75;5049042;27;97160;-72
2022/07/11 08:28:06;;;;;;;6.32;1.15;;;;;;;24.06;38.60;101716.94;5051146;27;99119;-72
2022/07/11 08:30:33;;;;;;;9.13;1.70;;;;;;;24.30;37.74;101720.47;5049941;27;97979;-72
2022/07/11 08:33:00;;;;;;;10.45;1.30;;;;;;;24.36;37.94;101711.88;5049243;27;97114;-72
2022/07/11 08:35:27;;;;;;;11.73;1.70;;;;;;;24.66;37.78;101718.56;5048410;27;97202;-73
2022/07/11 08:37:53;;;;;;;10.15;1.75;;;;;;;24.48;37.51;101715.50;5043070;27;99142;-72
2022/07/11 08:40:20;;;;;;;7.53;1.73;;;;;;;23.96;37.49;101719.47;5050664;27;98999;-71
2022/07/11 08:42:46;;;;;;;9.98;1.60;;;;;;;24.01;38.08;101721.84;5049270;27;98724;-71
2022/07/11 08:45:14;;;;;;;7.32;1.33;;;;;;;24.50;37.70;101716.22;5047912;27;97195;-71
2022/07/11 08:47:42;;;;;;;57.83;22.30;;;;;;;24.95;36.94;101715.28;5048661;27;99239;-72
2022/07/11 08:50:11;;;;;;;47.60;17.45;;;;;;;25.47;35.88;101712.88;5050640;27;97477;-72
2022/07/11 08:52:39;;;;;;;18.02;6.32;;;;;;;25.35;35.96;101715.59;5050576;27;96741;-71
2022/07/11 08:55:07;;;;;;;15.75;4.22;;;;;;;24.88;36.38;101727.53;5049668;27;97315;-71
2022/07/11 08:57:35;;;;;;;14.70;3.65;;;;;;;23.36;39.36;101722.22;5048098;27;98932;-72
2022/07/11 09:00:01;;;;;;;40.72;13.98;;;;;;;23.70;38.82;101716.03;5051214;27;98493;-71
2022/07/11 09:02:30;;;;;;;236.98;128.18;;;;;;;24.58;37.24;101713.78;5045404;27;97430;-72
2022/07/11 09:04:57;;;;;;;25.90;12.15;;;;;;;24.59;37.54;101718.19;5048417;27;97471;-72
2022/07/11 09:07:24;;;;;;;12.27;4.97;;;;;;;24.82;36.81;101719.91;5049734;27;99240;-72
2022/07/11 09:09:51;;;;;;;216.25;83.53;;;;;;;25.17;36.21;101714.41;5049973;27;97816;-72
2022/07/11 09:12:17;;;;;;;320.30;119.53;;;;;;;25.65;35.64;101716.78;5049245;27;96760;-72
2022/07/11 09:14:47;;;;;;;92.55;28.55;;;;;;;25.05;35.48;101704.59;5043116;27;97462;-73
2022/07/11 09:17:13;;;;;;;39.35;12.98;;;;;;;24.98;35.87;101712.34;5047906;27;98938;-72
2022/07/11 09:19:41;;;;;;;44.90;13.73;;;;;;;24.93;36.00;101713.69;5049041;27;99778;-72
2022/07/11 09:27:44;;;;;;;9.77;1.27;;;;;;;24.83;35.93;101716.22;5051844;27;97260;-71
2022/07/11 09:30:18;;;;;;;6.53;1.05;;;;;;;24.38;36.79;101720.75;5049148;27;97538;-71
2022/07/11 09:32:54;;;;;;;7.57;1.55;;;;;;;24.48;36.88;101720.88;5049449;27;97561;-72
2022/07/11 09:35:20;;;;;;;12.43;1.77;;;;;;;24.84;36.15;101711.69;5045905;27;96911;-71
2022/07/11 09:37:49;;;;;;;10.98;1.58;;;;;;;24.55;36.68;101706.75;5049431;27;98968;-71
2022/07/11 09:40:17;;;;;;;7.13;1.50;;;;;;;24.72;36.25;101708.13;5048175;27;99560;-72
2022/07/11 09:42:48;;;;;;;8.73;2.10;;;;;;;24.85;36.10;101708.00;5046714;27;97731;-72
2022/07/11 09:45:15;;;;;;;5.63;1.42;;;;;;;25.06;35.78;101706.31;5051891;27;97238;-72
2022/07/11 09:47:51;;;;;;;9.02;1.20;;;;;;;25.90;34.27;101708.31;5042714;27;99304;-72
2022/07/11 09:50:21;;;;;;;6.72;1.40;;;;;;;25.99;34.06;101715.66;5043148;27;99564;-72
2022/07/11 09:53:03;;;;;;;4.93;1.50;;;;;;;25.47;33.32;101711.00;5045539;27;96801;-72
2022/07/11 09:55:30;;;;;;;6.63;1.02;;;;;;;25.22;33.86;101706.78;5049266;27;97025;-72
2022/07/11 09:57:57;;;;;;;7.25;1.45;;;;;;;25.24;34.00;101706.66;5046143;27;99017;-71
2022/07/11 10:00:23;;;;;;;3.35;1.15;;;;;;;25.51;34.36;101712.50;5049661;27;97781;-72
2022/07/11 10:02:54;;;;;;;4.82;1.60;;;;;;;25.45;35.04;101696.78;5045868;27;97605;-73
2022/07/11 10:05:21;;;;;;;7.65;1.73;;;;;;;25.84;33.96;101706.13;5048996;27;97200;-72
2022/07/11 10:07:48;;;;;;;5.07;1.02;;;;;;;24.75;34.74;101712.41;5044227;27;99052;-71
2022/07/11 10:10:16;;;;;;;3.33;0.88;;;;;;;25.12;33.22;101708.53;5050187;27;99089;-71
2022/07/11 10:12:44;;;;;;;2.03;0.65;;;;;;;25.38;32.65;101715.34;5045202;27;97139;-72
2022/07/11 10:15:12;;;;;;;5.18;1.20;;;;;;;25.16;33.94;101703.72;5049325;27;97157;-71
2022/07/11 10:17:47;;;;;;;3.47;0.80;;;;;;;24.68;35.06;101712.03;5044934;27;98866;-71
2022/07/11 10:20:21;;;;;;;6.05;1.08;;;;;;;25.14;34.58;101711.94;5048845;27;97975;-71
2022/07/11 10:22:54;;;;;;;6.13;1.00;;;;;;;25.02;33.60;101707.53;5047329;27;97507;-72
2022/07/11 10:25:29;;;;;;;3.92;1.23;;;;;;;25.22;32.79;101703.19;5046004;27;97645;-72
2022/07/11 10:28:07;;;;;;;4.50;1.00;;;;;;;25.94;32.01;101709.75;5047125;27;99963;-72
2022/07/11 10:30:48;;;;;;;3.15;0.82;;;;;;;25.01;33.91;101706.66;5045353;27;98897;-71
2022/07/11 10:33:15;;;;;;;5.45;1.17;;;;;;;25.10;33.81;101705.06;5047186;27;97447;-71
2022/07/11 10:35:44;;;;;;;6.95;0.73;;;;;;;24.44;34.13;101709.44;5050724;27;97382;-72
2022/07/11 10:38:10;;;;;;;1.50;0.50;;;;;;;23.56;35.68;101704.59;5047676;27;101240;-71
2022/07/11 10:40:46;;;;;;;2.53;0.75;;;;;;;23.84;35.27;101699.69;5048953;27;99046;-72
2022/07/11 10:43:13;;;;;;;;;;;;;;;24.20;33.94;101705.97;5046205;27;97871;-72
2022/07/11 10:45:51;;;;;;;1.90;0.57;;;;;;;25.07;32.78;101696.38;5047433;27;96973;-72
2022/07/11 10:48:17;;;;;;;6.90;1.75;;;;;;;25.27;31.80;101691.00;5043445;27;99241;-73
2022/07/11 10:50:44;;;;;;;6.85;1.25;;;;;;;25.74;31.63;101689.78;5044710;27;99586;-72
2022/07/11 10:53:21;;;;;;;5.47;1.42;;;;;;;25.75;31.98;101696.94;5046303;27;97332;-72
2022/07/11 10:56:03;;;;;;;5.28;1.38;;;;;;;25.36;31.50;101702.94;5050056;27;98684;-71
2022/07/11 10:58:31;;;;;;;10.05;0.90;;;;;;;25.23;31.24;101700.38;5049197;27;98192;-72
2022/07/11 11:01:10;;;;;;;3.35;0.70;;;;;;;25.25;31.16;101692.16;5045294;27;101127;-71
2022/07/11 11:03:36;;;;;;;5.53;0.80;;;;;;;25.18;31.00;101694.50;5046821;27;97401;-71
2022/07/11 11:06:03;;;;;;;4.50;1.00;;;;;;;25.19;31.11;101687.25;5048645;27;96923;-71
2022/07/11 11:08:46;;;;;;;2.50;0.50;;;;;;;25.23;31.94;101684.16;5045169;27;97311;-72
2022/07/11 11:11:39;;;;;;;2.15;0.45;;;;;;;25.38;30.56;101684.75;5044410;27;99320;-71
2022/07/11 11:14:33;;;;;;;2.28;0.50;;;;;;;24.52;31.67;101685.41;5046189;27;97456;-72
2022/07/11 11:17:33;;;;;;;1.92;0.43;;;;;;;25.16;31.32;101684.78;5022086;27;97403;-71
2022/07/11 11:20:00;;;;;;;6.32;0.93;;;;;;;25.60;30.63;101689.25;5046850;27;98884;-72
2022/07/11 11:22:28;;;;;;;2.92;0.70;;;;;;;25.77;30.49;101689.56;5047554;27;98981;-72
2022/07/11 11:24:57;;;;;;;4.55;0.47;;;;;;;26.00;29.80;101697.53;5040475;27;97467;-71
2022/07/11 11:27:26;;;;;;;4.47;0.70;;;;;;;26.14;29.03;101697.22;5045638;27;98316;-70
2022/07/11 11:29:55;;;;;;;2.83;0.40;;;;;;;25.98;29.17;101697.69;5042360;27;99036;-71
2022/07/11 11:32:23;;;;;;;2.67;0.45;;;;;;;25.73;28.88;101690.78;5047028;27;101053;-72
2022/07/11 11:34:50;;;;;;;3.95;0.65;;;;;;;25.89;28.90;101687.66;5047786;27;97213;-71
2022/07/11 11:37:18;;;;;;;3.28;0.73;;;;;;;26.07;29.23;101694.19;5046478;27;96900;-70